createdAt,value
2023-02-04T00:01:49.998Z,98817.00
2023-02-04T00:04:19.231Z,98823.00
2023-02-04T00:06:48.465Z,98826.00
2023-02-04T00:09:18.219Z,98835.00
2023-02-04T00:11:47.470Z,98841.00
2023-02-04T00:14:16.671Z,98841.00
2023-02-04T00:16:45.976Z,98842.00
2023-02-04T00:19:15.412Z,98848.00
2023-02-04T00:21:44.649Z,98851.00
2023-02-04T00:24:13.876Z,98844.00
2023-02-04T00:26:43.097Z,98850.00
2023-02-04T00:29:12.268Z,98854.00
2023-02-04T00:31:41.710Z,98864.00
2023-02-04T00:34:10.990Z,98863.00
2023-02-04T00:36:40.202Z,98865.00
2023-02-04T00:39:09.614Z,98864.00
2023-02-04T00:41:38.810Z,98873.00
2023-02-04T00:44:08.069Z,98871.00
2023-02-04T00:46:37.312Z,98872.00
2023-02-04T00:49:11.409Z,98875.00
2023-02-04T00:51:45.657Z,98879.00
2023-02-04T00:54:16.825Z,98881.00
2023-02-04T00:56:46.850Z,98883.00
2023-02-04T00:59:16.290Z,98882.00
2023-02-04T01:01:46.415Z,98884.00
2023-02-04T01:04:16.051Z,98881.00
2023-02-04T01:06:45.499Z,98887.00
2023-02-04T01:09:15.011Z,98899.00
2023-02-04T01:11:44.298Z,98892.00
2023-02-04T01:14:14.330Z,98893.00
2023-02-04T01:16:46.658Z,98897.00
2023-02-04T01:19:16.158Z,98909.00
2023-02-04T01:21:45.397Z,98912.00
2023-02-04T01:24:16.540Z,98911.00
2023-02-04T01:26:45.752Z,98916.00
2023-02-04T01:29:16.699Z,98924.00
2023-02-04T01:31:46.434Z,98929.00
2023-02-04T01:34:18.500Z,98938.00
2023-02-04T01:36:47.794Z,98934.00
2023-02-04T01:39:17.077Z,98941.00
2023-02-04T01:41:46.373Z,98947.00
2023-02-04T01:44:16.903Z,98952.00
2023-02-04T01:46:46.231Z,98959.00
2023-02-04T01:49:15.453Z,98965.00
2023-02-04T01:51:44.860Z,98969.00
2023-02-04T01:54:18.959Z,98981.00
2023-02-04T01:56:50.049Z,98984.00
2023-02-04T01:59:20.621Z,98979.00
2023-02-04T02:01:55.532Z,98985.00
2023-02-04T02:04:42.410Z,98974.00
2023-02-04T02:07:12.539Z,98971.00
2023-02-04T02:09:42.009Z,98975.00
2023-02-04T02:12:11.251Z,98974.00
2023-02-04T02:14:40.380Z,98976.00
2023-02-04T02:17:09.564Z,98981.00
2023-02-04T02:19:41.044Z,98981.00
2023-02-04T02:22:27.851Z,98983.00
2023-02-04T02:24:57.195Z,98990.00
2023-02-04T02:27:26.433Z,98997.00
2023-02-04T02:29:56.386Z,98999.00
2023-02-04T02:32:27.127Z,98997.00
2023-02-04T02:34:56.284Z,99006.00
2023-02-04T02:37:25.912Z,99000.00
2023-02-04T02:39:55.764Z,99001.00
2023-02-04T02:42:28.298Z,99002.00
2023-02-04T02:44:58.222Z,98995.00
2023-02-04T02:47:29.361Z,98998.00
2023-02-04T02:49:58.592Z,99001.00
2023-02-04T02:52:27.792Z,98994.00
2023-02-04T02:54:56.974Z,99003.00
2023-02-04T02:57:26.626Z,99004.00
2023-02-04T02:59:55.777Z,98998.00
2023-02-04T03:02:25.891Z,99003.00
2023-02-04T03:05:02.025Z,99007.00
2023-02-04T03:07:31.210Z,99003.00
2023-02-04T03:10:00.412Z,99002.00
2023-02-04T03:12:29.635Z,98993.00
2023-02-04T03:14:58.814Z,98988.00
2023-02-04T03:17:28.375Z,98988.00
2023-02-04T03:19:57.895Z,98986.00
2023-02-04T03:22:27.096Z,98985.00
2023-02-04T03:24:56.356Z,98990.00
2023-02-04T03:27:26.323Z,98988.00
2023-02-04T03:29:56.218Z,98985.00
2023-02-04T03:32:25.310Z,98988.00
2023-02-04T03:34:54.381Z,98983.00
2023-02-04T03:37:23.564Z,98985.00
2023-02-04T03:39:52.683Z,98980.00
2023-02-04T03:42:21.766Z,98974.00
2023-02-04T03:44:50.980Z,98968.00
2023-02-04T03:47:20.119Z,98967.00
2023-02-04T03:49:49.256Z,98974.00
2023-02-04T03:52:18.534Z,98966.00
2023-02-04T03:54:48.159Z,98963.00
2023-02-04T03:57:17.393Z,98961.00
2023-02-04T03:59:46.638Z,98955.00
2023-02-04T04:02:15.834Z,98955.00
2023-02-04T04:04:45.226Z,98958.00
2023-02-04T04:07:15.004Z,98951.00
2023-02-04T04:09:44.235Z,98948.00
2023-02-04T04:12:13.304Z,98949.00
2023-02-04T04:14:42.394Z,98942.00
2023-02-04T04:17:11.564Z,98932.00
2023-02-04T04:19:40.627Z,98932.00
2023-02-04T04:22:09.715Z,98928.00
2023-02-04T04:24:39.106Z,98929.00
2023-02-04T04:27:08.337Z,98917.00
2023-02-04T04:29:38.589Z,98909.00
2023-02-04T04:32:07.841Z,98914.00
2023-02-04T04:34:37.451Z,98908.00
2023-02-04T04:37:06.712Z,98905.00
2023-02-04T04:39:35.799Z,98907.00
2023-02-04T04:42:04.925Z,98903.00
2023-02-04T04:44:34.093Z,98903.00
2023-02-04T04:47:04.208Z,98890.00
2023-02-04T04:49:33.323Z,98878.00
2023-02-04T04:52:02.537Z,98875.00
2023-02-04T04:54:31.702Z,98864.00
2023-02-04T04:57:00.818Z,98861.00
2023-02-04T04:59:30.052Z,98856.00
2023-02-04T05:01:59.218Z,98846.00
2023-02-04T05:04:28.408Z,98842.00
2023-02-04T05:06:57.519Z,98843.00
2023-02-04T05:09:27.115Z,98840.00
2023-02-04T05:11:56.198Z,98829.00
2023-02-04T05:14:25.920Z,98827.00
2023-02-04T05:16:55.106Z,98820.00
2023-02-04T05:19:24.245Z,98820.00
2023-02-04T05:21:53.458Z,98825.00
2023-02-04T05:24:22.547Z,98819.00
2023-02-04T05:26:51.621Z,98818.00
2023-02-04T05:29:20.924Z,98815.00
2023-02-04T05:31:51.835Z,98810.00
2023-02-04T05:34:21.211Z,98804.00
2023-02-04T05:36:50.400Z,98807.00
2023-02-04T05:39:19.570Z,98805.00
2023-02-04T05:41:48.923Z,98794.00
2023-02-04T05:44:18.175Z,98786.00
2023-02-04T05:46:47.374Z,98784.00
2023-02-04T05:49:16.619Z,98776.00
2023-02-04T05:51:45.841Z,98780.00
2023-02-04T05:54:20.345Z,98774.00
2023-02-04T05:56:50.084Z,98768.00
2023-02-04T05:59:19.531Z,98765.00
2023-02-04T06:01:48.893Z,98757.00
2023-02-04T06:04:18.846Z,98752.00
2023-02-04T06:06:48.169Z,98750.00
2023-02-04T06:09:17.464Z,98746.00
2023-02-04T06:11:46.784Z,98742.00
2023-02-04T06:14:15.953Z,98730.00
2023-02-04T06:16:45.350Z,98730.00
2023-02-04T06:19:15.044Z,98722.00
2023-02-04T06:21:44.379Z,98720.00
2023-02-04T06:24:13.820Z,98720.00
2023-02-04T06:26:42.986Z,98701.00
2023-02-04T06:29:12.308Z,98701.00
2023-02-04T06:31:41.699Z,98696.00
2023-02-04T06:34:10.963Z,98683.00
2023-02-04T06:36:40.126Z,98685.00
2023-02-04T06:39:09.402Z,98681.00
2023-02-04T06:41:38.636Z,98678.00
2023-02-04T06:44:07.891Z,98673.00
2023-02-04T06:46:37.201Z,98667.00
2023-02-04T06:49:06.359Z,98653.00
2023-02-04T06:51:35.545Z,98656.00
2023-02-04T06:54:04.931Z,98650.00
2023-02-04T06:56:34.112Z,98647.00
2023-02-04T06:59:03.548Z,98642.00
2023-02-04T07:01:33.390Z,98648.00
2023-02-04T07:04:02.858Z,98644.00
2023-02-04T07:06:32.067Z,98634.00
2023-02-04T07:09:01.426Z,98634.00
2023-02-04T07:11:30.662Z,98636.00
2023-02-04T07:13:59.883Z,98626.00
2023-02-04T07:16:29.171Z,98627.00
2023-02-04T07:18:58.379Z,98616.00
2023-02-04T07:21:28.330Z,98613.00
2023-02-04T07:23:57.628Z,98616.00
2023-02-04T07:26:26.807Z,98614.00
2023-02-04T07:28:56.321Z,98610.00
2023-02-04T07:31:25.748Z,98606.00
2023-02-04T07:33:55.605Z,98603.00
2023-02-04T07:36:24.978Z,98598.00
2023-02-04T07:38:54.046Z,98614.00
2023-02-04T07:41:23.143Z,98602.00
2023-02-04T07:43:52.335Z,98601.00
2023-02-04T07:46:21.501Z,98599.00
2023-02-04T07:48:50.627Z,98598.00
2023-02-04T07:51:19.886Z,98600.00
2023-02-04T07:53:48.970Z,98594.00
2023-02-04T07:56:18.082Z,98597.00
2023-02-04T07:58:47.491Z,98588.00
2023-02-04T08:01:16.666Z,98592.00
2023-02-04T08:03:46.131Z,98590.00
2023-02-04T08:06:15.524Z,98592.00
2023-02-04T08:08:44.628Z,98585.00
2023-02-04T08:11:13.731Z,98587.00
2023-02-04T08:13:42.864Z,98581.00
2023-02-04T08:16:12.056Z,98576.00
2023-02-04T08:18:41.265Z,98582.00
2023-02-04T08:21:10.362Z,98574.00
2023-02-04T08:23:42.722Z,98580.00
2023-02-04T08:26:13.375Z,98575.00
2023-02-04T08:28:42.477Z,98572.00
2023-02-04T08:31:15.182Z,98577.00
2023-02-04T08:33:44.388Z,98573.00
2023-02-04T08:36:13.477Z,98569.00
2023-02-04T08:38:42.587Z,98569.00
2023-02-04T08:41:12.047Z,98566.00
2023-02-04T08:43:41.238Z,98560.00
2023-02-04T08:46:10.429Z,98562.00
2023-02-04T08:48:39.612Z,98562.00
2023-02-04T08:51:08.742Z,98559.00
2023-02-04T08:53:38.688Z,98559.00
2023-02-04T08:56:09.891Z,98557.00
2023-02-04T08:58:40.642Z,98560.00
2023-02-04T09:01:12.178Z,98559.00
2023-02-04T09:03:42.004Z,98557.00
2023-02-04T09:06:11.131Z,98554.00
2023-02-04T09:08:40.512Z,98550.00
2023-02-04T09:11:12.220Z,98556.00
2023-02-04T09:13:41.628Z,98559.00
2023-02-04T09:16:11.808Z,98560.00
2023-02-04T09:18:41.573Z,98558.00
2023-02-04T09:21:10.652Z,98559.00
2023-02-04T09:23:39.939Z,98557.00
2023-02-04T09:26:09.021Z,98559.00
2023-02-04T09:28:38.301Z,98555.00
2023-02-04T09:31:07.735Z,98564.00
2023-02-04T09:33:38.315Z,98562.00
2023-02-04T09:36:09.745Z,98557.00
2023-02-04T09:38:39.162Z,98560.00
2023-02-04T09:41:16.031Z,98562.00
2023-02-04T09:43:47.389Z,98558.00
2023-02-04T09:46:35.776Z,98557.00
2023-02-04T09:49:05.348Z,98555.00
2023-02-04T09:51:37.212Z,98559.00
2023-02-04T09:54:19.297Z,98562.00
2023-02-04T09:56:49.258Z,98558.00
2023-02-04T09:59:25.335Z,98562.00
2023-02-04T10:02:12.346Z,98559.00
2023-02-04T10:04:41.429Z,98561.00
2023-02-04T10:07:14.710Z,98564.00
2023-02-04T10:09:43.830Z,98558.00
2023-02-04T10:12:12.947Z,98553.00
2023-02-04T10:14:42.546Z,98563.00
2023-02-04T10:17:14.148Z,98564.00
2023-02-04T10:19:43.337Z,98564.00
2023-02-04T10:22:22.069Z,98564.00
2023-02-04T10:24:51.401Z,98563.00
2023-02-04T10:27:20.563Z,98571.00
2023-02-04T10:30:00.848Z,98565.00
2023-02-04T10:32:35.904Z,98568.00
2023-02-04T10:35:05.752Z,98562.00
2023-02-04T10:37:34.970Z,98565.00
2023-02-04T10:40:04.127Z,98571.00
2023-02-04T10:42:35.317Z,98575.00
2023-02-04T10:45:05.160Z,98575.00
2023-02-04T10:47:37.068Z,98574.00
2023-02-04T10:50:20.025Z,98575.00
2023-02-04T10:53:17.740Z,98577.00
2023-02-04T10:55:50.010Z,98579.00
2023-02-04T10:58:28.774Z,98575.00
2023-02-04T11:00:58.413Z,98578.00
2023-02-04T11:03:33.874Z,98579.00
2023-02-04T11:06:03.423Z,98578.00
2023-02-04T11:08:42.778Z,98574.00
2023-02-04T11:11:27.624Z,98577.00
2023-02-04T11:13:56.799Z,98576.00
2023-02-04T11:16:28.536Z,98575.00
2023-02-04T11:19:12.657Z,98575.00
2023-02-04T11:21:41.685Z,98575.00
2023-02-04T11:24:14.843Z,98579.00
2023-02-04T11:27:07.532Z,98581.00
2023-02-04T11:29:39.840Z,98588.00
2023-02-04T11:32:38.949Z,98588.00
2023-02-04T11:35:12.440Z,98596.00
2023-02-04T11:37:44.676Z,98601.00
2023-02-04T11:40:44.133Z,98592.00
2023-02-04T11:43:17.664Z,98591.00
2023-02-04T11:45:47.908Z,98592.00
2023-02-04T11:48:22.575Z,98591.00
2023-02-04T11:51:03.654Z,98596.00
2023-02-04T11:53:35.526Z,98597.00
2023-02-04T11:56:05.049Z,98601.00
2023-02-04T11:58:34.960Z,98598.00
2023-02-04T12:01:04.276Z,98603.00
2023-02-04T12:03:35.886Z,98602.00
2023-02-04T12:06:06.180Z,98610.00
2023-02-04T12:08:37.968Z,98615.00
2023-02-04T12:11:16.630Z,98617.00
2023-02-04T12:13:53.161Z,98623.00
2023-02-04T12:16:22.971Z,98622.00
2023-02-04T12:18:52.708Z,98620.00
2023-02-04T12:21:22.314Z,98615.00
2023-02-04T12:23:51.490Z,98620.00
2023-02-04T12:26:20.651Z,98629.00
2023-02-04T12:28:49.925Z,98623.00
2023-02-04T12:31:19.711Z,98631.00
2023-02-04T12:33:49.050Z,98635.00
2023-02-04T12:36:18.355Z,98625.00
2023-02-04T12:38:47.540Z,98640.00
2023-02-04T12:41:16.766Z,98641.00
2023-02-04T12:43:46.411Z,98645.00
2023-02-04T12:46:15.584Z,98641.00
2023-02-04T12:48:44.936Z,98639.00
2023-02-04T12:51:14.295Z,98653.00
2023-02-04T12:53:44.028Z,98651.00
2023-02-04T12:56:13.247Z,98656.00
2023-02-04T12:58:42.892Z,98664.00
2023-02-04T13:01:12.142Z,98666.00
2023-02-04T13:03:41.326Z,98668.00
2023-02-04T13:06:10.728Z,98665.00
2023-02-04T13:08:39.887Z,98675.00
2023-02-04T13:11:09.057Z,98669.00
2023-02-04T13:13:38.281Z,98672.00
2023-02-04T13:16:08.711Z,98673.00
2023-02-04T13:18:37.943Z,98679.00
2023-02-04T13:21:07.467Z,98686.00
2023-02-04T13:23:37.359Z,98683.00
2023-02-04T13:26:06.872Z,98683.00
2023-02-04T13:28:37.081Z,98685.00
2023-02-04T13:31:08.162Z,98691.00
2023-02-04T13:33:40.222Z,98698.00
2023-02-04T13:36:09.872Z,98702.00
2023-02-04T13:38:39.032Z,98709.00
2023-02-04T13:41:08.199Z,98711.00
2023-02-04T13:43:37.704Z,98710.00
2023-02-04T13:46:07.285Z,98705.00
2023-02-04T13:48:36.700Z,98710.00
2023-02-04T13:51:07.470Z,98709.00
2023-02-04T13:53:36.663Z,98709.00
2023-02-04T13:56:06.220Z,98702.00
2023-02-04T13:58:35.363Z,98710.00
2023-02-04T14:01:04.915Z,98707.00
2023-02-04T14:03:34.304Z,98713.00
2023-02-04T14:06:03.522Z,98723.00
2023-02-04T14:08:33.298Z,98716.00
2023-02-04T14:11:03.343Z,98715.00
2023-02-04T14:13:32.525Z,98720.00
2023-02-04T14:16:01.744Z,98722.00
2023-02-04T14:18:31.137Z,98714.00
2023-02-04T14:21:00.306Z,98717.00
2023-02-04T14:23:29.750Z,98715.00
2023-02-04T14:25:59.041Z,98714.00
2023-02-04T14:28:28.226Z,98714.00
2023-02-04T14:30:58.292Z,98713.00
2023-02-04T14:33:27.449Z,98706.00
2023-02-04T14:35:56.683Z,98701.00
2023-02-04T14:38:31.667Z,98707.00
2023-02-04T14:41:01.295Z,98705.00
2023-02-04T14:43:30.498Z,98711.00
2023-02-04T14:45:59.643Z,98708.00
2023-02-04T14:48:28.872Z,98702.00
2023-02-04T14:50:57.994Z,98698.00
2023-02-04T14:53:30.133Z,98709.00
2023-02-04T14:55:59.357Z,98695.00
2023-02-04T14:58:28.488Z,98699.00
2023-02-04T15:00:57.861Z,98702.00
2023-02-04T15:03:26.998Z,98706.00
2023-02-04T15:05:56.196Z,98704.00
2023-02-04T15:08:25.515Z,98706.00
2023-02-04T15:10:54.768Z,98695.00
2023-02-04T15:13:23.994Z,98696.00
2023-02-04T15:15:53.097Z,98696.00
2023-02-04T15:18:22.663Z,98691.00
2023-02-04T15:20:51.775Z,98690.00
2023-02-04T15:23:20.896Z,98694.00
2023-02-04T15:25:52.547Z,98690.00
2023-02-04T15:28:22.211Z,98689.00
2023-02-04T15:30:52.033Z,98686.00
2023-02-04T15:33:22.775Z,98688.00
2023-02-04T15:35:52.100Z,98679.00
2023-02-04T15:38:21.337Z,98686.00
2023-02-04T15:40:50.480Z,98688.00
2023-02-04T15:43:19.784Z,98690.00
2023-02-04T15:45:49.105Z,98693.00
2023-02-04T15:48:20.844Z,98686.00
2023-02-04T15:50:49.945Z,98691.00
2023-02-04T15:53:20.167Z,98681.00
2023-02-04T15:55:49.764Z,98679.00
2023-02-04T15:58:19.077Z,98681.00
2023-02-04T16:00:48.192Z,98684.00
2023-02-04T16:03:17.420Z,98696.00
2023-02-04T16:05:46.597Z,98683.00
2023-02-04T16:08:15.724Z,98689.00
2023-02-04T16:10:45.054Z,98685.00
2023-02-04T16:13:14.145Z,98686.00
2023-02-04T16:15:43.395Z,98692.00
2023-02-04T16:18:12.890Z,98694.00
2023-02-04T16:20:42.063Z,98690.00
2023-02-04T16:23:11.199Z,98684.00
2023-02-04T16:25:40.361Z,98681.00
2023-02-04T16:28:09.570Z,98677.00
2023-02-04T16:30:40.271Z,98683.00
2023-02-04T16:33:10.144Z,98683.00
2023-02-04T16:36:08.257Z,98686.00
2023-02-04T16:38:38.117Z,98675.00
2023-02-04T16:41:08.683Z,98677.00
2023-02-04T16:43:38.273Z,98674.00
2023-02-04T16:46:07.846Z,98676.00
2023-02-04T16:48:37.470Z,98673.00
2023-02-04T16:51:06.832Z,98675.00
2023-02-04T16:53:35.966Z,98681.00
2023-02-04T16:56:05.355Z,98683.00
2023-02-04T16:58:34.522Z,98688.00
2023-02-04T17:01:03.665Z,98691.00
2023-02-04T17:03:32.858Z,98698.00
2023-02-04T17:06:03.222Z,98700.00
2023-02-04T17:08:32.340Z,98697.00
2023-02-04T17:11:19.726Z,98697.00
2023-02-04T17:13:48.850Z,98689.00
2023-02-04T17:16:19.758Z,98694.00
2023-02-04T17:18:49.887Z,98690.00
2023-02-04T17:21:19.396Z,98692.00
2023-02-04T17:23:48.658Z,98689.00
2023-02-04T17:26:18.246Z,98684.00
2023-02-04T17:28:47.607Z,98683.00
2023-02-04T17:31:17.132Z,98683.00
2023-02-04T17:33:46.893Z,98692.00
2023-02-04T17:36:16.521Z,98679.00
2023-02-04T17:38:45.658Z,98681.00
2023-02-04T17:41:14.770Z,98689.00
2023-02-04T17:43:43.896Z,98683.00
2023-02-04T17:46:13.077Z,98677.00
2023-02-04T17:48:42.268Z,98676.00
2023-02-04T17:51:11.466Z,98671.00
2023-02-04T17:53:43.741Z,98669.00
2023-02-04T17:56:16.583Z,98668.00
2023-02-04T17:58:46.880Z,98667.00
2023-02-04T18:01:20.146Z,98665.00
2023-02-04T18:03:49.372Z,98662.00
2023-02-04T18:06:30.025Z,98658.00
2023-02-04T18:09:03.290Z,98656.00
2023-02-04T18:11:40.485Z,98650.00
2023-02-04T18:14:44.243Z,98647.00
2023-02-04T18:17:17.054Z,98651.00
2023-02-04T18:19:46.393Z,98650.00
2023-02-04T18:22:18.951Z,98648.00
2023-02-04T18:24:49.847Z,98638.00
2023-02-04T18:27:24.804Z,98636.00
2023-02-04T18:30:00.036Z,98627.00
2023-02-04T18:32:41.872Z,98622.00
2023-02-04T18:35:33.385Z,98621.00
2023-02-04T18:38:02.533Z,98624.00
2023-02-04T18:40:34.682Z,98622.00
2023-02-04T18:43:28.420Z,98623.00
2023-02-04T18:46:05.774Z,98631.00
2023-02-04T18:49:02.815Z,98624.00
2023-02-04T18:51:41.268Z,98625.00
2023-02-04T18:54:39.988Z,98616.00
2023-02-04T18:57:16.409Z,98616.00
2023-02-04T18:59:45.847Z,98610.00
2023-02-04T19:02:38.122Z,98618.00
2023-02-04T19:05:27.377Z,98618.00
2023-02-04T19:08:08.143Z,98613.00
2023-02-04T19:10:43.365Z,98611.00
2023-02-04T19:13:42.812Z,98607.00
2023-02-04T19:16:30.715Z,98605.00
2023-02-04T19:19:01.180Z,98603.00
2023-02-04T19:21:36.013Z,98601.00
2023-02-04T19:24:30.546Z,98605.00
2023-02-04T19:27:02.766Z,98600.00
2023-02-04T19:29:41.516Z,98600.00
2023-02-04T19:32:56.581Z,98593.00
2023-02-04T19:35:30.427Z,98600.00
2023-02-04T19:38:03.468Z,98595.00
2023-02-04T19:40:35.933Z,98600.00
2023-02-04T19:43:33.408Z,98592.00
2023-02-04T19:46:03.844Z,98592.00
2023-02-04T19:48:38.274Z,98588.00
2023-02-04T19:51:30.932Z,98588.00
2023-02-04T19:54:16.990Z,98587.00
2023-02-04T19:56:48.568Z,98587.00
2023-02-04T19:59:35.192Z,98590.00
2023-02-04T20:02:19.660Z,98588.00
2023-02-04T20:04:55.973Z,98593.00
2023-02-04T20:07:28.686Z,98598.00
2023-02-04T20:10:24.571Z,98585.00
2023-02-04T20:13:12.233Z,98598.00
2023-02-04T20:15:41.400Z,98592.00
2023-02-04T20:18:21.358Z,98590.00
2023-02-04T20:20:50.781Z,98591.00
2023-02-04T20:23:34.369Z,98596.00
2023-02-04T20:26:03.887Z,98590.00
2023-02-04T20:28:46.801Z,98606.00
2023-02-04T20:31:26.474Z,98598.00
2023-02-04T20:34:00.972Z,98590.00
2023-02-04T20:36:31.885Z,98596.00
2023-02-04T20:39:30.115Z,98592.00
2023-02-04T20:42:30.563Z,98592.00
2023-02-04T20:45:49.163Z,98593.00
2023-02-04T20:48:18.422Z,98595.00
2023-02-04T20:50:53.100Z,98596.00
2023-02-04T20:53:41.636Z,98597.00
2023-02-04T20:56:28.858Z,98600.00
2023-02-04T20:59:34.814Z,98606.00
2023-02-04T21:02:18.999Z,98612.00
2023-02-04T21:04:54.507Z,98603.00
2023-02-04T21:07:24.896Z,98603.00
2023-02-04T21:09:54.194Z,98593.00
2023-02-04T21:12:23.466Z,98592.00
2023-02-04T21:14:53.052Z,98591.00
2023-02-04T21:17:22.286Z,98593.00
2023-02-04T21:19:51.458Z,98588.00
2023-02-04T21:22:20.685Z,98586.00
2023-02-04T21:24:49.913Z,98588.00
2023-02-04T21:27:22.944Z,98589.00
2023-02-04T21:29:52.324Z,98595.00
2023-02-04T21:32:22.353Z,98600.00
2023-02-04T21:34:51.464Z,98612.00
2023-02-04T21:37:20.552Z,98606.00
2023-02-04T21:39:49.653Z,98613.00
2023-02-04T21:42:19.116Z,98608.00
2023-02-04T21:44:48.228Z,98608.00
2023-02-04T21:47:18.695Z,98609.00
2023-02-04T21:49:47.913Z,98607.00
2023-02-04T21:52:16.993Z,98604.00
2023-02-04T21:54:46.090Z,98604.00
2023-02-04T21:57:17.319Z,98613.00
2023-02-04T21:59:49.222Z,98609.00
2023-02-04T22:02:18.385Z,98615.00
2023-02-04T22:04:47.490Z,98613.00
2023-02-04T22:07:16.675Z,98620.00
2023-02-04T22:09:45.930Z,98612.00
2023-02-04T22:12:15.282Z,98612.00
2023-02-04T22:15:04.220Z,98617.00
2023-02-04T22:17:33.608Z,98624.00
2023-02-04T22:20:02.780Z,98632.00
2023-02-04T22:22:31.943Z,98639.00
2023-02-04T22:25:01.104Z,98638.00
2023-02-04T22:27:30.439Z,98638.00
2023-02-04T22:30:03.238Z,98646.00
2023-02-04T22:32:32.530Z,98650.00
2023-02-04T22:35:01.630Z,98652.00
2023-02-04T22:37:30.848Z,98656.00
2023-02-04T22:40:00.151Z,98656.00
2023-02-04T22:42:29.267Z,98666.00
2023-02-04T22:44:59.090Z,98673.00
2023-02-04T22:47:28.262Z,98672.00
2023-02-04T22:49:57.448Z,98671.00
2023-02-04T22:52:26.780Z,98673.00
2023-02-04T22:54:55.943Z,98675.00
2023-02-04T22:57:25.103Z,98681.00
2023-02-04T22:59:54.214Z,98683.00
2023-02-04T23:02:23.413Z,98680.00
2023-02-04T23:04:52.556Z,98691.00
2023-02-04T23:07:21.803Z,98691.00
2023-02-04T23:09:51.106Z,98702.00
2023-02-04T23:12:20.274Z,98696.00
2023-02-04T23:14:50.834Z,98699.00
2023-02-04T23:17:20.688Z,98701.00
2023-02-04T23:19:49.850Z,98708.00
2023-02-04T23:22:19.093Z,98702.00
2023-02-04T23:24:50.482Z,98709.00
2023-02-04T23:27:19.717Z,98715.00
2023-02-04T23:29:48.885Z,98717.00
2023-02-04T23:32:18.331Z,98722.00
2023-02-04T23:34:47.785Z,98724.00
2023-02-04T23:37:16.985Z,98732.00
2023-02-04T23:39:46.155Z,98729.00
2023-02-04T23:42:15.269Z,98742.00
2023-02-04T23:44:44.701Z,98737.00
2023-02-04T23:47:13.839Z,98741.00
2023-02-04T23:49:43.092Z,98741.00
2023-02-04T23:52:12.175Z,98751.00
2023-02-04T23:54:42.638Z,98756.00
2023-02-04T23:57:12.599Z,98769.00
2023-02-04T23:59:43.094Z,98774.00
